Have a Safe July 4th! 

Flight Track Log - Related Links

Times and Time Zones

All times are in EDT time to prevent confusion due to time zone crossing. See the SWA1031 flight status page for this flight to view local times or setup timezone preferences in your user account.

Time Position Orientation Groundspeed Altitude Reporting Facility
EDT Latitude Longitude Course Direction KTS MPH feet Rate Location/Type
Thu 04:57:17 PM 34.0558 -117.6892 270° West 202 232 3,600  Level Los Angeles Center
Thu 04:58:19 PM 34.0872 -117.7708 295° West 239 275 6,500 3,048 Climbing Los Angeles Center
Thu 04:59:21 PM 34.1381 -117.8372 313° West 266 306 9,900 2,774 Climbing Los Angeles Center
Thu 05:01:00 PM 34.2802 -118.0302 320° Northwest  Level FlightAware Approximate
Thu 05:01:25 PM 34.2772 -117.8742 320° Northwest 338 389 15,100  Level Los Angeles Center
Thu 05:02:27 PM 34.3325 -117.7703 57° Northeast 368 423 17,800 2,613 Climbing Los Angeles Center
Thu 05:03:29 PM 34.3947 -117.6550 57° Northeast 385 443 20,500 2,352 Climbing Los Angeles Center
Thu 05:04:32 PM 34.4556 -117.5414 57° Northeast 404 465 22,700 2,112 Climbing Los Angeles Center
Thu 05:05:34 PM 34.5317 -117.3958 58° Northeast 428 493 24,900 1,984 Climbing Los Angeles Center
Thu 05:06:36 PM 34.6100 -117.2800 51° Northeast 448 516 26,800 1,790 Climbing Los Angeles Center
Thu 05:07:38 PM 34.6922 -117.1639 49° Northeast 456 525 28,600 1,306 Climbing Los Angeles Center
Thu 05:08:40 PM 34.7750 -117.0475 49° Northeast 460 529 29,500 1,113 Climbing Los Angeles Center
Thu 05:09:42 PM 34.8606 -116.9281 49° Northeast 469 540 30,900 1,694 Climbing Los Angeles Center
Thu 05:10:44 PM 34.9622 -116.7814 50° Northeast 474 545 33,000 1,742 Climbing Los Angeles Center
Thu 05:11:46 PM 35.0472 -116.6583 50° Northeast 476 548 34,500 1,306 Climbing Los Angeles Center
Thu 05:12:48 PM 35.1328 -116.5386 49° Northeast 473 544 35,700 1,152 Climbing Los Angeles Center
Thu 05:13:51 PM 35.2178 -116.4175 49° Northeast 470 541 36,900 624 Climbing Los Angeles Center
Thu 05:14:53 PM 35.3028 -116.2953 50° Northeast 473 544 37,000 48 Climbing Los Angeles Center
Thu 05:15:55 PM 35.4019 -116.1483 50° Northeast 467 537 37,000  Level Los Angeles Center
Thu 05:16:57 PM 35.4886 -116.0272 49° Northeast 471 542 37,000  Level Los Angeles Center
Thu 05:17:59 PM 35.5722 -115.9061 50° Northeast 468 539 37,000  Level Los Angeles Center
Thu 05:19:01 PM 35.6628 -115.7750 50° Northeast 467 537 37,000  Level Los Angeles Center
Thu 05:20:03 PM 35.7439 -115.6519 51° Northeast 466 536 37,000  Level Los Angeles Center
Thu 05:21:05 PM 35.7956 -115.5042 67° East 473 544 37,000  Level Los Angeles Center
Thu 05:22:07 PM 35.8475 -115.3564 67° East 474 545 37,000  Level Los Angeles Center
Thu 05:23:09 PM 35.9061 -115.1769 68° East 472 543 37,000  Level Los Angeles Center
Thu 05:24:12 PM 35.9583 -115.0272 67° East 476 548 37,000  Level Los Angeles Center
Thu 05:25:14 PM 36.0086 -114.8750 68° East 482 555 37,000 48 Level Los Angeles Center
Thu 05:26:16 PM 36.0611 -114.7222 67° East 485 558 37,100 677 Climbing Los Angeles Center
Thu 05:27:18 PM 36.1117 -114.5689 68° East 483 556 38,400 919 Climbing Los Angeles Center
Thu 05:28:20 PM 36.1706 -114.3878 68° East 478 550 39,000 290 Climbing Los Angeles Center
Thu 05:29:22 PM 36.2178 -114.2361 69° East 475 547 39,000  Level Los Angeles Center
Thu 05:30:24 PM 36.2667 -114.0844 68° East 475 547 39,000  Level Los Angeles Center
Thu 05:31:26 PM 36.3144 -113.9333 69° East 473 544 39,000  Level Los Angeles Center
Thu 05:32:28 PM 36.3614 -113.7817 69° East 472 543 39,000  Level Los Angeles Center
Thu 05:33:31 PM 36.4183 -113.5992 69° East 472 543 39,000  Level Los Angeles Center
Thu 05:34:33 PM 36.4667 -113.4458 69° East 475 547 39,000  Level Los Angeles Center
Thu 05:35:35 PM 36.5092 -113.3089 69° East 477 549 39,000  Level Los Angeles Center
Thu 05:36:37 PM 36.5644 -113.1239 70° East 478 550 39,000  Level Los Angeles Center
Thu 05:37:39 PM 36.6128 -112.9686 69° East 482 555 39,000  Level Los Angeles Center
Thu 05:38:41 PM 36.6600 -112.8131 69° East 483 556 39,000  Level Los Angeles Center
Thu 05:39:43 PM 36.7078 -112.6567 69° East 485 558 39,000  Level Los Angeles Center
Thu 05:40:45 PM 36.7544 -112.4992 70° East 487 560 39,000  Level Los Angeles Center
Thu 05:41:47 PM 36.8100 -112.3119 70° East 485 558 39,000  Level Los Angeles Center
Thu 05:42:50 PM 36.8572 -112.1558 69° East 484 557 39,000  Level Los Angeles Center
Thu 05:43:44 PM 36.8939 -112.0311 70° East 482 555 39,000  Level Denver Center
Thu 05:44:46 PM 36.9483 -111.8442 70° East 480 552 39,000  Level Denver Center
Thu 05:45:49 PM 36.9944 -111.6864 70° East 483 556 39,000  Level Denver Center
Thu 05:46:51 PM 37.0414 -111.5286 70° East 485 558 39,000  Level Denver Center
Thu 05:47:53 PM 37.0856 -111.3714 71° East 483 556 39,000  Level Denver Center
Thu 05:48:55 PM 37.1311 -111.2133 70° East 483 556 39,000  Level Denver Center
Thu 05:49:57 PM 37.1761 -111.0539 70° East 487 560 39,000  Level Denver Center
Thu 05:50:59 PM 37.2317 -110.8611 70° East 491 565 39,000  Level Denver Center
Thu 05:52:01 PM 37.2753 -110.7014 71° East 488 562 39,000  Level Denver Center
Thu 05:53:03 PM 37.3211 -110.5400 70° East 490 564 39,000  Level Denver Center
Thu 05:54:05 PM 37.3656 -110.3794 71° East 489 563 39,000  Level Denver Center
Thu 05:55:07 PM 37.4100 -110.2181 71° East 489 563 39,000  Level Denver Center
Thu 05:56:09 PM 37.4628 -110.0264 71° East 487 560 39,000  Level Denver Center
Thu 05:57:11 PM 37.5053 -109.8722 71° East 486 559 39,000  Level Denver Center
Thu 05:58:13 PM 37.5464 -109.7169 71° East 489 563 39,000  Level Denver Center
Thu 05:59:15 PM 37.5956 -109.5344 71° East 491 565 39,000  Level Denver Center
Thu 06:00:17 PM 37.6369 -109.3797 71° East 487 560 39,000  Level Denver Center
Thu 06:01:19 PM 37.6856 -109.1969 71° East 491 565 39,000  Level Denver Center
Thu 06:02:21 PM 37.7269 -109.0397 72° East 492 566 39,000  Level Denver Center
Thu 06:03:23 PM 37.7753 -108.8553 72° East 495 570 39,000  Level Denver Center
Thu 06:04:25 PM 37.8172 -108.6928 72° East 503 579 39,000  Level Denver Center
Thu 06:05:27 PM 37.8653 -108.5072 72° East 499 574 39,000  Level Denver Center
Thu 06:06:29 PM 37.9075 -108.3456 72° East 502 578 39,000  Level Denver Center
Thu 06:07:31 PM 37.9553 -108.1550 72° East 505 581 39,000  Level Denver Center
Thu 06:08:33 PM 37.9967 -107.9914 72° East 509 586 39,000  Level Denver Center
Thu 06:09:35 PM 38.0444 -107.8022 72° East 508 585 39,000  Level Denver Center
Thu 06:10:37 PM 38.0881 -107.6272 72° East 503 579 39,000  Level Denver Center
Thu 06:11:39 PM 38.1286 -107.4658 72° East 504 580 39,000  Level Denver Center
Thu 06:12:41 PM 38.1683 -107.3022 73° East 507 583 39,000  Level Denver Center
Thu 06:13:43 PM 38.2139 -107.1189 72° East 502 578 39,000  Level Denver Center
Thu 06:14:46 PM 38.2542 -106.9492 73° East 503 579 39,000  Level Denver Center
Thu 06:15:48 PM 38.2997 -106.7619 73° East 503 579 39,000  Level Denver Center
Thu 06:16:50 PM 38.3381 -106.5981 73° East 507 583 39,000  Level Denver Center
Thu 06:17:52 PM 38.3836 -106.4056 73° East 504 580 39,000  Level Denver Center
Thu 06:18:54 PM 38.4236 -106.2358 73° East 504 580 39,000  Level Denver Center
Thu 06:19:56 PM 38.4631 -106.0689 73° East 504 580 39,000  Level Denver Center
Thu 06:20:58 PM 38.5075 -105.8775 73° East 504 580 39,000  Level Denver Center
Thu 06:22:00 PM 38.5442 -105.7139 74° East 501 577 39,000  Level Denver Center
Thu 06:23:02 PM 38.5886 -105.5233 73° East 501 577 39,000  Level Denver Center
Thu 06:24:04 PM 38.6253 -105.3592 74° East 502 578 39,000  Level Denver Center
Thu 06:25:06 PM 38.6689 -105.1653 74° East 507 583 39,000  Level Denver Center
Thu 06:26:08 PM 38.7053 -105.0014 74° East 503 579 39,000  Level Denver Center
Thu 06:27:10 PM 38.7486 -104.8058 74° East 508 585 39,000  Level Denver Center
Thu 06:28:12 PM 38.7850 -104.6403 74° East 504 580 39,000  Level Denver Center
Thu 06:29:14 PM 38.8211 -104.4722 75° East 507 583 39,000  Level Denver Center
Thu 06:30:16 PM 38.8639 -104.2789 74° East 506 582 39,000  Level Denver Center
Thu 06:31:18 PM 38.8989 -104.1128 75° East 505 581 39,000  Level Denver Center
Thu 06:32:20 PM 38.9403 -103.9189 75° East 505 581 39,000  Level Denver Center
Thu 06:33:22 PM 38.9756 -103.7531 75° East 502 578 39,000  Level Denver Center
Thu 06:34:24 PM 39.0147 -103.5589 75° East 502 578 39,000  Level Denver Center
Thu 06:35:26 PM 39.0533 -103.3806 74° East 501 577 39,000  Level Denver Center
Thu 06:36:28 PM 39.0897 -103.1969 76° East 507 583 39,000  Level Denver Center
Thu 06:37:30 PM 39.1236 -103.0303 75° East 504 580 39,000  Level Denver Center
Thu 06:38:32 PM 39.1642 -102.8336 75° East 507 583 39,000  Level Denver Center
Thu 06:39:34 PM 39.1994 -102.6544 76° East 504 580 39,000  Level Denver Center
Thu 06:40:36 PM 39.2333 -102.4856 75° East 507 583 39,000  Level Denver Center
Thu 06:41:38 PM 39.2669 -102.3161 76° East 509 586 39,000  Level Denver Center
Thu 06:42:40 PM 39.3056 -102.1192 76° East 508 585 39,000  Level Denver Center
Thu 06:43:42 PM 39.3386 -101.9492 76° East 512 589 39,000  Level Denver Center
Thu 06:44:44 PM 39.3769 -101.7486 76° East 516 594 39,000  Level Denver Center
Thu 06:45:46 PM 39.4081 -101.5758 77° East 517 595 39,000  Level Denver Center
Thu 06:46:48 PM 39.4428 -101.3728 77° East 518 596 39,000  Level Denver Center
Thu 06:47:50 PM 39.4725 -101.1964 78° East 524 603 39,000  Level Denver Center
Thu 06:48:52 PM 39.5058 -100.9939 78° East 521 600 39,000  Level Denver Center
Thu 06:49:54 PM 39.5350 -100.8217 78° East 517 595 39,000  Level Denver Center
Thu 06:50:56 PM 39.5692 -100.6181 78° East 520 598 39,000  Level Denver Center
Thu 06:51:58 PM 39.5975 -100.4447 78° East 516 594 39,000  Level Denver Center
Thu 06:53:00 PM 39.6289 -100.2411 79° East 518 596 39,000  Level Denver Center
Thu 06:54:02 PM 39.6575 -100.0678 78° East 516 594 39,000  Level Denver Center
Thu 06:55:04 PM 39.6886 -99.8664 79° East 514 592 39,000 194 Level Denver Center
Thu 06:56:06 PM 39.7175 -99.6833 78° East 518 596 39,400 488 Climbing Denver Center
Thu 06:57:07 PM 39.7406 -99.5372 78° East 518 596 40,000 290 Climbing Denver Center
Thu 06:58:10 PM 39.7733 -99.3178 79° East 515 593 40,000  Level Denver Center
Thu 06:59:12 PM 39.8014 -99.1342 79° East 519 597 40,000  Level Denver Center
Thu 07:00:14 PM 39.8417 -98.9189 76° East 515 593 40,000  Level Denver Center
Thu 07:00:44 PM 39.8561 -98.8489 75° East 514 592 40,000  Level Minneapolis Center
Thu 07:01:16 PM 39.8750 -98.7386 77° East 515 593 40,000  Level Denver Center
Thu 07:01:46 PM 39.8875 -98.6683 77° East 514 592 40,000  Level Minneapolis Center
Thu 07:02:48 PM 39.9197 -98.4892 77° East 512 589 40,000  Level Minneapolis Center
Thu 07:03:50 PM 39.9581 -98.2758 77° East 507 583 40,000  Level Minneapolis Center
Thu 07:04:52 PM 39.9911 -98.0950 77° East 511 588 40,000  Level Minneapolis Center
Thu 07:05:54 PM 40.0231 -97.9136 77° East 514 592 40,000  Level Minneapolis Center
Thu 07:06:56 PM 40.0539 -97.7306 78° East 518 596 40,000  Level Minneapolis Center
Thu 07:07:58 PM 40.0897 -97.5233 77° East 519 597 40,000  Level Minneapolis Center
Thu 07:09:00 PM 40.1175 -97.3644 77° East 519 597 40,000  Level Minneapolis Center
Thu 07:10:02 PM 40.1522 -97.1567 78° East 519 597 40,000  Level Minneapolis Center
Thu 07:11:05 PM 40.1828 -96.9722 78° East 520 598 40,000  Level Minneapolis Center
Thu 07:12:07 PM 40.2131 -96.7867 78° East 522 601 40,000  Level Minneapolis Center
Thu 07:13:09 PM 40.2436 -96.6039 78° East 520 598 40,000  Level Minneapolis Center
Thu 07:14:10 PM 40.2736 -96.4203 78° East 518 596 40,000  Level Minneapolis Center
Thu 07:15:25 PM 40.3086 -96.2017 78° East 515 593 40,000  Level Minneapolis Center
Thu 07:16:27 PM 40.3422 -95.9828 79° East 514 592 40,000  Level Minneapolis Center
Thu 07:17:29 PM 40.3714 -95.7972 78° East 519 597 40,000  Level Minneapolis Center
Thu 07:18:31 PM 40.4003 -95.6156 78° East 514 592 40,000  Level Minneapolis Center
Thu 07:19:45 PM 40.4339 -95.3978 78° East 511 588 40,000  Level Minneapolis Center
Thu 07:20:48 PM 40.4669 -95.1781 79° East 513 590 40,000  Level Minneapolis Center
Thu 07:21:50 PM 40.4947 -94.9958 79° East 512 589 40,000  Level Minneapolis Center
Thu 07:22:52 PM 40.5208 -94.8106 79° East 515 593 40,000  Level Minneapolis Center
Thu 07:23:54 PM 40.5478 -94.6253 79° East 516 594 40,000  Level Minneapolis Center
Thu 07:24:56 PM 40.5747 -94.4372 79° East 520 598 40,000  Level Minneapolis Center
Thu 07:25:58 PM 40.6047 -94.2131 80° East 521 600 40,000  Level Minneapolis Center
Thu 07:27:00 PM 40.6303 -94.0289 80° East 520 598 40,000  Level Minneapolis Center
Thu 07:28:02 PM 40.6561 -93.8439 80° East 517 595 40,000  Level Minneapolis Center
Thu 07:29:05 PM 40.6825 -93.6594 79° East 517 595 40,000  Level Minneapolis Center
Thu 07:30:07 PM 40.7078 -93.4722 80° East 514 592 40,000  Level Minneapolis Center
Thu 07:31:09 PM 40.7369 -93.2533 80° East 515 593 40,000 -295 Level Minneapolis Center
Thu 07:33:10 PM 40.7842 -92.8819 80° East 511 588 39,100 -441 Descending Chicago Center
Thu 07:33:25 PM 40.7847 -92.8831 303° West 514 592 39,000 -968 Descending Minneapolis Center
Thu 07:34:12 PM 40.8094 -92.6967 80° East 512 589 38,100 -982 Descending Chicago Center
Thu 07:35:15 PM 40.8339 -92.5069 80° East 523 602 37,200 -912 Descending Chicago Center
Thu 07:36:17 PM 40.8564 -92.3186 81° East 521 600 36,200 -968 Descending Chicago Center
Thu 07:37:19 PM 40.8797 -92.1306 81° East 520 598 35,200 -1,016 Descending Chicago Center
Thu 07:38:21 PM 40.9064 -91.9047 81° East 521 600 34,100 -1,065 Descending Chicago Center
Thu 07:39:23 PM 40.9283 -91.7178 81° East 518 596 33,000 -1,258 Descending Chicago Center
Thu 07:40:25 PM 40.9517 -91.5358 80° East 506 582 31,500 -1,548 Descending Chicago Center
Thu 07:41:27 PM 40.9717 -91.3544 82° East 501 577 29,800 -1,645 Descending Chicago Center
Thu 07:42:29 PM 40.9908 -91.1786 82° East 499 574 28,100 -1,935 Descending Chicago Center
Thu 07:43:31 PM 41.0153 -90.9597 82° East 501 577 25,800 -1,887 Descending Chicago Center
Thu 07:44:33 PM 41.0361 -90.7775 81° East 499 574 24,200 -871 Descending Chicago Center
Thu 07:45:35 PM 41.0561 -90.5986 82° East 494 568 24,000 -624 Descending Chicago Center
Thu 07:46:38 PM 41.0747 -90.4217 82° East 486 559 22,900 -1,008 Descending Chicago Center
Thu 07:47:40 PM 41.0933 -90.2450 82° East 481 554 21,900 -1,500 Descending Chicago Center
Thu 07:48:42 PM 41.1117 -90.0739 82° East 467 537 19,800 -1,984 Descending Chicago Center
Thu 07:49:44 PM 41.1281 -89.9081 82° East 452 520 17,800 -1,500 Descending Chicago Center
Thu 07:50:46 PM 41.1442 -89.7489 82° East 434 499 16,700 -1,113 Descending Chicago Center
Thu 07:51:48 PM 41.1622 -89.5600 83° East 427 491 15,500 -1,065 Descending Chicago Center
Thu 07:52:50 PM 41.1739 -89.4061 84° East 419 482 14,500 -968 Descending Chicago Center
Thu 07:53:52 PM 41.1961 -89.2569 79° East 409 471 13,500 -1,016 Descending Chicago Center
Thu 07:54:54 PM 41.2492 -89.1153 63° Northeast 393 452 12,400 -1,016 Descending Chicago Center
Thu 07:55:56 PM 41.2961 -88.9872 64° Northeast 388 447 11,400 -968 Descending Chicago Center
Thu 07:56:58 PM 41.3414 -88.8650 64° Northeast 373 429 10,400 -871 Descending Chicago Center
Thu 07:58:00 PM 41.3814 -88.7603 63° Northeast 322 371 9,600 -1,161 Descending Chicago Center
Thu 07:59:02 PM 41.4197 -88.6603 63° Northeast 307 353 8,000 -1,194 Descending Chicago Center
Thu 08:01:06 PM 41.5033 -88.4558 61° Northeast 284 327 5,900 -963 Descending Chicago Center
Thu 08:02:09 PM 41.5375 -88.3658 63° Northeast 278 320 5,000 -432 Descending Chicago Center
Thu 08:03:11 PM 41.5531 -88.2667 78° East 275 316 5,000  Level Chicago Center
Thu 08:04:13 PM 41.5581 -88.1661 86° East 271 312 5,000  Level Chicago Center
Thu 08:05:15 PM 41.5603 -88.0644 88° East 272 313 5,000  Level Chicago Center
Thu 08:06:17 PM 41.5642 -87.9619 87° East 272 313 5,000 -194 Level Chicago Center
Thu 08:07:19 PM 41.5769 -87.8406 82° East 280 322 4,600 -435 Descending Chicago Center
Thu 08:08:21 PM 41.6231 -87.7717 48° Northeast 260 299 4,100 -615 Descending Chicago Center
Thu 08:08:37 PM 41.6333 -87.7500 58° Northeast 235 270 3,800 -868 Descending Chicago TRACON
Thu 08:09:37 PM 41.6833 -87.7000 37° Northeast 202 232 3,000 -800 Descending Chicago TRACON
Thu 08:10:37 PM 41.7333 -87.6833 14° North 168 193 2,200 -850 Descending Chicago TRACON
Thu 08:11:37 PM 41.7667 -87.7167 323° Northwest 131 151 1,300 -900 Descending Chicago TRACON

Login

Don't have an account? Register now (free) for customized features, flight alerts, and more!